Time,TemperatureF,DewpointF,PressureIn,WindDirection,WindDirectionDegrees,WindSpeedMPH,WindSpeedGustMPH,Humidity,HourlyPrecipIn,Conditions,Clouds,dailyrainin,SoftwareType,DateUTC
2013-06-29 00:08:00,64.4,62.0,29.55,SSW,195,0.0,0.0,93,0.00,,,0.00,weatherlink.com 1.10,2013-06-29 04:08:00,
2013-06-29 00:23:00,64.3,63.0,29.55,SSW,195,0.0,0.0,94,0.00,,,0.00,weatherlink.com 1.10,2013-06-29 04:23:00,
2013-06-29 00:38:00,64.3,63.0,29.55,SSW,195,0.0,0.0,94,0.00,,,0.00,weatherlink.com 1.10,2013-06-29 04:38:00,
2013-06-29 00:53:00,64.2,63.0,29.55,SSW,195,0.0,0.0,95,0.00,,,0.00,weatherlink.com 1.10,2013-06-29 04:53:00,
2013-06-29 01:08:00,64.3,63.0,29.55,SSW,195,0.0,0.0,95,0.00,,,0.00,weatherlink.com 1.10,2013-06-29 05:08:00,
2013-06-29 01:23:00,64.3,63.0,29.54,SSW,195,0.0,0.0,95,0.00,,,0.00,weatherlink.com 1.10,2013-06-29 05:23:00,
2013-06-29 01:38:00,64.1,63.0,29.54,SSW,195,0.0,0.0,95,0.00,,,0.00,weatherlink.com 1.10,2013-06-29 05:38:00,
2013-06-29 01:53:00,63.8,62.0,29.53,SSW,195,0.0,0.0,95,0.00,,,0.00,weatherlink.com 1.10,2013-06-29 05:53:00,
2013-06-29 02:08:00,63.6,62.0,29.54,SSW,195,0.0,0.0,95,0.00,,,0.00,weatherlink.com 1.10,2013-06-29 06:08:00,
2013-06-29 02:23:00,63.4,62.0,29.54,SSW,195,0.0,0.0,96,0.00,,,0.00,weatherlink.com 1.10,2013-06-29 06:23:00,
2013-06-29 02:38:00,63.3,62.0,29.54,SSW,195,0.0,0.0,96,0.00,,,0.00,weatherlink.com 1.10,2013-06-29 06:38:00,
2013-06-29 02:58:00,63.1,62.0,29.53,SSW,195,0.0,0.0,96,0.00,,,0.00,weatherlink.com 1.10,2013-06-29 06:58:00,
2013-06-29 03:08:00,63.0,62.0,29.53,SSW,195,0.0,0.0,96,0.00,,,0.00,weatherlink.com 1.10,2013-06-29 07:08:00,
2013-06-29 03:23:00,63.0,62.0,29.53,SSW,195,0.0,0.0,96,0.00,,,0.00,weatherlink.com 1.10,2013-06-29 07:23:00,
2013-06-29 03:38:00,62.8,62.0,29.53,SSW,195,0.0,0.0,96,0.00,,,0.00,weatherlink.com 1.10,2013-06-29 07:38:00,
2013-06-29 03:53:00,62.5,61.0,29.53,SSW,195,0.0,0.0,96,0.00,,,0.00,weatherlink.com 1.10,2013-06-29 07:53:00,
2013-06-29 04:08:00,62.1,61.0,29.53,SSW,195,0.0,0.0,96,0.00,,,0.00,weatherlink.com 1.10,2013-06-29 08:08:00,
2013-06-29 04:23:00,61.6,61.0,29.52,SSW,195,0.0,0.0,96,0.00,,,0.00,weatherlink.com 1.10,2013-06-29 08:23:00,
2013-06-29 04:38:00,61.8,61.0,29.52,SSW,195,0.0,0.0,97,0.00,,,0.00,weatherlink.com 1.10,2013-06-29 08:38:00,
2013-06-29 04:53:00,62.0,61.0,29.53,SSW,195,0.0,0.0,97,0.00,,,0.00,weatherlink.com 1.10,2013-06-29 08:53:00,
2013-06-29 05:08:00,61.6,61.0,29.52,SSW,195,0.0,0.0,96,0.00,,,0.00,weatherlink.com 1.10,2013-06-29 09:08:00,
2013-06-29 05:23:00,61.3,61.0,29.53,SSW,195,0.0,0.0,97,0.01,,,0.01,weatherlink.com 1.10,2013-06-29 09:23:00,
2013-06-29 05:38:00,60.9,60.0,29.53,SSW,195,0.0,0.0,97,0.01,,,0.01,weatherlink.com 1.10,2013-06-29 09:38:00,
2013-06-29 05:53:00,61.0,60.0,29.54,SSW,195,0.0,0.0,97,0.01,,,0.01,weatherlink.com 1.10,2013-06-29 09:53:00,
2013-06-29 06:08:00,61.3,61.0,29.54,SSW,195,0.0,0.0,97,0.01,,,0.01,weatherlink.com 1.10,2013-06-29 10:08:00,
2013-06-29 06:23:00,61.5,61.0,29.54,SSW,195,0.0,0.0,97,0.00,,,0.01,weatherlink.com 1.10,2013-06-29 10:23:00,
2013-06-29 06:38:00,61.6,61.0,29.54,SSW,195,0.0,0.0,97,0.00,,,0.01,weatherlink.com 1.10,2013-06-29 10:38:00,
2013-06-29 06:53:00,61.8,61.0,29.54,SSW,195,0.0,0.0,97,0.00,,,0.01,weatherlink.com 1.10,2013-06-29 10:53:00,
2013-06-29 07:08:00,62.1,62.0,29.54,SSW,195,0.0,0.0,98,0.00,,,0.01,weatherlink.com 1.10,2013-06-29 11:08:00,
2013-06-29 07:23:00,62.7,62.0,29.54,SSW,195,0.0,0.0,98,0.00,,,0.01,weatherlink.com 1.10,2013-06-29 11:23:00,
2013-06-29 07:38:00,63.9,63.0,29.55,SSW,195,0.0,0.0,98,0.00,,,0.01,weatherlink.com 1.10,2013-06-29 11:38:00,
2013-06-29 07:53:00,64.5,64.0,29.55,SSW,195,0.0,1.0,98,0.00,,,0.01,weatherlink.com 1.10,2013-06-29 11:53:00,
2013-06-29 08:08:00,64.9,64.0,29.55,SSW,195,0.0,1.0,98,0.00,,,0.01,weatherlink.com 1.10,2013-06-29 12:08:00,
2013-06-29 08:23:00,65.3,65.0,29.55,SSW,195,0.0,2.0,98,0.00,,,0.01,weatherlink.com 1.10,2013-06-29 12:23:00,
2013-06-29 08:38:00,65.2,65.0,29.55,SSW,195,0.0,3.0,98,0.00,,,0.01,weatherlink.com 1.10,2013-06-29 12:38:00,
2013-06-29 08:53:00,65.3,65.0,29.56,South,182,0.0,0.0,97,0.00,,,0.01,weatherlink.com 1.10,2013-06-29 12:53:00,
2013-06-29 09:08:00,65.5,65.0,29.56,South,182,0.0,0.0,97,0.00,,,0.01,weatherlink.com 1.10,2013-06-29 13:08:00,
2013-06-29 09:24:00,65.9,65.0,29.56,South,182,0.0,1.0,97,0.00,,,0.01,weatherlink.com 1.10,2013-06-29 13:24:00,
2013-06-29 09:39:00,66.4,65.0,29.56,South,182,0.0,0.0,96,0.00,,,0.01,weatherlink.com 1.10,2013-06-29 13:39:00,
2013-06-29 09:54:00,67.1,65.0,29.56,South,182,0.0,1.0,94,0.00,,,0.01,weatherlink.com 1.10,2013-06-29 13:54:00,
2013-06-29 10:09:00,67.7,65.0,29.56,South,179,0.0,2.0,92,0.00,,,0.01,weatherlink.com 1.10,2013-06-29 14:09:00,
2013-06-29 10:24:00,67.5,65.0,29.56,South,177,0.0,1.0,91,0.00,,,0.01,weatherlink.com 1.10,2013-06-29 14:24:00,
2013-06-29 10:39:00,67.0,65.0,29.56,South,185,0.0,2.0,93,0.04,,,0.05,weatherlink.com 1.10,2013-06-29 14:39:00,
2013-06-29 10:54:00,66.6,65.0,29.56,South,184,0.0,0.0,94,0.09,,,0.10,weatherlink.com 1.10,2013-06-29 14:54:00,
2013-06-29 11:09:00,66.3,65.0,29.56,South,184,0.0,0.0,95,0.11,,,0.12,weatherlink.com 1.10,2013-06-29 15:09:00,
2013-06-29 11:24:00,66.4,65.0,29.56,South,184,0.0,0.0,95,0.11,,,0.12,weatherlink.com 1.10,2013-06-29 15:24:00,
2013-06-29 11:39:00,66.5,65.0,29.56,South,185,0.0,0.0,95,0.14,,,0.20,weatherlink.com 1.10,2013-06-29 15:39:00,
2013-06-29 11:54:00,66.4,65.0,29.56,South,185,0.0,0.0,95,0.10,,,0.20,weatherlink.com 1.10,2013-06-29 15:54:00,
2013-06-29 12:09:00,66.7,66.0,29.56,South,185,0.0,0.0,96,0.08,,,0.20,weatherlink.com 1.10,2013-06-29 16:09:00,
2013-06-29 12:24:00,68.0,67.0,29.56,South,185,0.0,0.0,96,0.08,,,0.20,weatherlink.com 1.10,2013-06-29 16:24:00,
2013-06-29 12:39:00,68.7,67.0,29.56,ESE,119,0.0,2.0,93,0.00,,,0.20,weatherlink.com 1.10,2013-06-29 16:39:00,
2013-06-29 12:54:00,69.2,67.0,29.57,ESE,119,0.0,0.0,93,0.00,,,0.20,weatherlink.com 1.10,2013-06-29 16:54:00,
2013-06-29 13:09:00,69.3,67.0,29.56,ESE,119,0.0,0.0,91,0.00,,,0.20,weatherlink.com 1.10,2013-06-29 17:09:00,
2013-06-29 13:24:00,69.6,67.0,29.56,ESE,119,0.0,1.0,91,0.00,,,0.20,weatherlink.com 1.10,2013-06-29 17:24:00,
2013-06-29 13:39:00,69.2,67.0,29.56,ESE,117,0.0,0.0,92,0.00,,,0.20,weatherlink.com 1.10,2013-06-29 17:39:00,
2013-06-29 13:54:00,69.3,67.0,29.56,ESE,117,0.0,0.0,93,0.00,,,0.20,weatherlink.com 1.10,2013-06-29 17:54:00,
2013-06-29 14:09:00,69.3,68.0,29.57,SSE,149,0.0,1.0,94,0.00,,,0.20,weatherlink.com 1.10,2013-06-29 18:09:00,
2013-06-29 14:24:00,69.2,68.0,29.57,SSE,161,0.0,1.0,94,0.00,,,0.20,weatherlink.com 1.10,2013-06-29 18:24:00,
2013-06-29 14:39:00,69.2,68.0,29.57,SSE,162,0.0,1.0,94,0.00,,,0.20,weatherlink.com 1.10,2013-06-29 18:39:00,
2013-06-29 14:54:00,69.3,67.0,29.57,SSE,162,0.0,1.0,93,0.00,,,0.20,weatherlink.com 1.10,2013-06-29 18:54:00,
2013-06-29 15:09:00,69.2,67.0,29.58,SSE,161,0.0,1.0,92,0.00,,,0.20,weatherlink.com 1.10,2013-06-29 19:09:00,
2013-06-29 15:24:00,68.6,67.0,29.58,SE,134,0.0,4.0,93,0.00,,,0.20,weatherlink.com 1.10,2013-06-29 19:24:00,
2013-06-29 15:39:00,68.5,67.0,29.58,SE,134,0.0,1.0,94,0.00,,,0.20,weatherlink.com 1.10,2013-06-29 19:39:00,
2013-06-29 15:54:00,68.5,67.0,29.57,ESE,105,0.0,0.0,94,0.00,,,0.20,weatherlink.com 1.10,2013-06-29 19:54:00,
2013-06-29 16:09:00,68.8,67.0,29.57,South,190,0.0,1.0,94,0.00,,,0.20,weatherlink.com 1.10,2013-06-29 20:09:00,
2013-06-29 16:24:00,69.3,68.0,29.56,South,190,0.0,0.0,94,0.00,,,0.20,weatherlink.com 1.10,2013-06-29 20:24:00,
2013-06-29 16:39:00,70.0,68.0,29.57,WNW,293,0.0,1.0,93,0.00,,,0.20,weatherlink.com 1.10,2013-06-29 20:39:00,
2013-06-29 16:54:00,70.5,68.0,29.57,NW,313,0.0,4.0,92,0.00,,,0.20,weatherlink.com 1.10,2013-06-29 20:54:00,
2013-06-29 17:09:00,71.2,68.0,29.57,SSE,167,0.0,1.0,90,0.00,,,0.20,weatherlink.com 1.10,2013-06-29 21:09:00,
2013-06-29 17:24:00,71.9,68.0,29.57,South,170,0.0,2.0,87,0.00,,,0.20,weatherlink.com 1.10,2013-06-29 21:24:00,
2013-06-29 17:39:00,72.3,68.0,29.57,SSW,198,0.0,3.0,87,0.00,,,0.20,weatherlink.com 1.10,2013-06-29 21:39:00,
2013-06-29 17:54:00,71.7,67.0,29.57,ESE,107,1.0,5.0,86,0.00,,,0.20,weatherlink.com 1.10,2013-06-29 21:54:00,
2013-06-29 18:09:00,71.0,67.0,29.57,East,101,0.0,2.0,88,0.00,,,0.20,weatherlink.com 1.10,2013-06-29 22:09:00,
2013-06-29 18:24:00,70.5,67.0,29.58,East,101,0.0,5.0,88,0.00,,,0.20,weatherlink.com 1.10,2013-06-29 22:24:00,
2013-06-29 18:39:00,70.0,67.0,29.59,South,173,0.0,1.0,89,0.00,,,0.20,weatherlink.com 1.10,2013-06-29 22:39:00,
2013-06-29 18:54:00,68.5,65.0,29.59,South,175,0.0,2.0,88,0.00,,,0.20,weatherlink.com 1.10,2013-06-29 22:54:00,
2013-06-29 19:09:00,67.6,64.0,29.59,South,177,0.0,1.0,87,0.00,,,0.20,weatherlink.com 1.10,2013-06-29 23:09:00,
2013-06-29 19:24:00,66.7,63.0,29.59,South,175,0.0,2.0,88,0.00,,,0.20,weatherlink.com 1.10,2013-06-29 23:24:00,
2013-06-29 19:39:00,66.5,64.0,29.60,SSW,205,0.0,0.0,91,0.00,,,0.20,weatherlink.com 1.10,2013-06-29 23:39:00,
2013-06-29 19:54:00,66.7,64.0,29.61,NW,318,0.0,3.0,92,0.00,,,0.20,weatherlink.com 1.10,2013-06-29 23:54:00,
2013-06-29 20:09:00,67.0,65.0,29.61,West,275,0.0,1.0,92,0.00,,,0.20,weatherlink.com 1.10,2013-06-30 00:09:00,
2013-06-29 20:24:00,66.7,64.0,29.62,WNW,291,0.0,2.0,90,0.00,,,0.20,weatherlink.com 1.10,2013-06-30 00:24:00,
2013-06-29 20:39:00,66.4,64.0,29.62,SW,215,0.0,1.0,91,0.00,,,0.20,weatherlink.com 1.10,2013-06-30 00:39:00,
2013-06-29 20:54:00,66.1,64.0,29.62,West,266,0.0,2.0,91,0.00,,,0.20,weatherlink.com 1.10,2013-06-30 00:54:00,
2013-06-29 21:09:00,65.8,64.0,29.62,West,281,1.0,4.0,93,0.00,,,0.20,weatherlink.com 1.10,2013-06-30 01:09:00,
2013-06-29 21:24:00,65.4,64.0,29.61,West,277,1.0,6.0,94,0.00,,,0.20,weatherlink.com 1.10,2013-06-30 01:24:00,
2013-06-29 21:39:00,65.0,63.0,29.61,WNW,297,3.0,6.0,94,0.00,,,0.20,weatherlink.com 1.10,2013-06-30 01:39:00,
2013-06-29 21:54:00,64.8,63.0,29.62,WNW,292,0.0,3.0,95,0.00,,,0.20,weatherlink.com 1.10,2013-06-30 01:54:00,
2013-06-29 22:09:00,64.5,63.0,29.62,NW,309,0.0,5.0,95,0.00,,,0.20,weatherlink.com 1.10,2013-06-30 02:09:00,
2013-06-29 22:25:00,64.5,63.0,29.63,NW,306,4.0,6.0,96,0.00,,,0.20,weatherlink.com 1.10,2013-06-30 02:25:00,
2013-06-29 22:40:00,64.6,64.0,29.64,NW,309,2.0,4.0,96,0.00,,,0.20,weatherlink.com 1.10,2013-06-30 02:40:00,
2013-06-29 22:55:00,64.6,64.0,29.65,WNW,303,0.0,4.0,96,0.00,,,0.20,weatherlink.com 1.10,2013-06-30 02:55:00,
2013-06-29 23:10:00,64.6,64.0,29.65,West,280,0.0,5.0,96,0.00,,,0.20,weatherlink.com 1.10,2013-06-30 03:10:00,
2013-06-29 23:25:00,64.6,64.0,29.64,West,277,1.0,4.0,96,0.00,,,0.20,weatherlink.com 1.10,2013-06-30 03:25:00,
2013-06-29 23:40:00,64.6,64.0,29.64,NW,306,0.0,4.0,96,0.00,,,0.20,weatherlink.com 1.10,2013-06-30 03:40:00,
2013-06-29 23:55:00,64.7,64.0,29.64,WNW,300,0.0,4.0,97,0.00,,,0.20,weatherlink.com 1.10,2013-06-30 03:55:00,